sensor_id;sensor_type;location;lat;lon;timestamp;P1;durP1;ratioP1;P2;durP2;ratioP2
24407;SDS011;12542;50.924;4.516;2023-07-16T00:01:32;9.27;;;1.67;;
24407;SDS011;12542;50.924;4.516;2023-07-16T00:03:57;9.48;;;2.28;;
24407;SDS011;12542;50.924;4.516;2023-07-16T00:06:25;8.38;;;1.80;;
24407;SDS011;12542;50.924;4.516;2023-07-16T00:08:51;13.32;;;2.42;;
24407;SDS011;12542;50.924;4.516;2023-07-16T00:11:16;4.25;;;1.63;;
24407;SDS011;12542;50.924;4.516;2023-07-16T00:13:42;6.90;;;1.95;;
24407;SDS011;12542;50.924;4.516;2023-07-16T00:16:12;9.98;;;2.00;;
24407;SDS011;12542;50.924;4.516;2023-07-16T00:18:38;9.15;;;2.20;;
24407;SDS011;12542;50.924;4.516;2023-07-16T00:21:04;8.35;;;1.80;;
24407;SDS011;12542;50.924;4.516;2023-07-16T00:23:29;13.30;;;2.30;;
24407;SDS011;12542;50.924;4.516;2023-07-16T00:25:55;10.77;;;1.77;;
24407;SDS011;12542;50.924;4.516;2023-07-16T00:28:21;11.25;;;1.90;;
24407;SDS011;12542;50.924;4.516;2023-07-16T00:30:46;10.85;;;2.28;;
24407;SDS011;12542;50.924;4.516;2023-07-16T00:33:13;7.65;;;1.83;;
24407;SDS011;12542;50.924;4.516;2023-07-16T00:35:38;12.45;;;2.22;;
24407;SDS011;12542;50.924;4.516;2023-07-16T00:38:04;10.10;;;2.60;;
24407;SDS011;12542;50.924;4.516;2023-07-16T00:40:30;11.43;;;2.40;;
24407;SDS011;12542;50.924;4.516;2023-07-16T00:42:55;9.27;;;2.40;;
24407;SDS011;12542;50.924;4.516;2023-07-16T00:45:21;9.90;;;2.65;;
24407;SDS011;12542;50.924;4.516;2023-07-16T00:47:47;10.38;;;1.83;;
24407;SDS011;12542;50.924;4.516;2023-07-16T00:50:14;8.15;;;1.92;;
24407;SDS011;12542;50.924;4.516;2023-07-16T00:52:40;7.90;;;2.08;;
24407;SDS011;12542;50.924;4.516;2023-07-16T00:55:06;11.32;;;2.03;;
24407;SDS011;12542;50.924;4.516;2023-07-16T00:57:32;7.32;;;1.77;;
24407;SDS011;12542;50.924;4.516;2023-07-16T00:59:58;8.73;;;1.70;;
24407;SDS011;12542;50.924;4.516;2023-07-16T01:02:24;10.55;;;2.10;;
24407;SDS011;12542;50.924;4.516;2023-07-16T01:04:50;8.65;;;2.00;;
24407;SDS011;12542;50.924;4.516;2023-07-16T01:07:16;11.43;;;2.60;;
24407;SDS011;12542;50.924;4.516;2023-07-16T01:09:46;13.15;;;2.70;;
24407;SDS011;12542;50.924;4.516;2023-07-16T01:12:15;12.70;;;2.33;;
24407;SDS011;12542;50.924;4.516;2023-07-16T01:14:41;7.97;;;2.33;;
24407;SDS011;12542;50.924;4.516;2023-07-16T01:17:07;9.27;;;2.38;;
24407;SDS011;12542;50.924;4.516;2023-07-16T01:19:34;8.30;;;2.42;;
24407;SDS011;12542;50.924;4.516;2023-07-16T01:30:24;6.07;;;2.22;;
24407;SDS011;12542;50.924;4.516;2023-07-16T01:32:53;10.25;;;2.92;;
24407;SDS011;12542;50.924;4.516;2023-07-16T01:35:19;12.00;;;2.50;;
24407;SDS011;12542;50.924;4.516;2023-07-16T01:37:46;10.07;;;2.50;;
24407;SDS011;12542;50.924;4.516;2023-07-16T01:40:12;10.27;;;2.55;;
24407;SDS011;12542;50.924;4.516;2023-07-16T01:42:39;6.28;;;2.75;;
24407;SDS011;12542;50.924;4.516;2023-07-16T01:45:05;12.30;;;3.03;;
24407;SDS011;12542;50.924;4.516;2023-07-16T01:47:39;11.05;;;2.70;;
24407;SDS011;12542;50.924;4.516;2023-07-16T01:50:13;10.40;;;3.20;;
24407;SDS011;12542;50.924;4.516;2023-07-16T01:52:39;15.77;;;3.03;;
24407;SDS011;12542;50.924;4.516;2023-07-16T01:55:05;8.27;;;2.70;;
24407;SDS011;12542;50.924;4.516;2023-07-16T01:57:31;8.90;;;3.00;;
24407;SDS011;12542;50.924;4.516;2023-07-16T01:59:57;7.43;;;2.55;;
24407;SDS011;12542;50.924;4.516;2023-07-16T02:02:22;14.63;;;2.97;;
24407;SDS011;12542;50.924;4.516;2023-07-16T02:04:48;10.07;;;3.78;;
24407;SDS011;12542;50.924;4.516;2023-07-16T02:07:13;8.27;;;2.17;;
24407;SDS011;12542;50.924;4.516;2023-07-16T02:09:39;10.60;;;2.67;;
24407;SDS011;12542;50.924;4.516;2023-07-16T02:12:05;9.95;;;2.92;;
24407;SDS011;12542;50.924;4.516;2023-07-16T02:14:31;9.75;;;2.70;;
24407;SDS011;12542;50.924;4.516;2023-07-16T02:16:57;10.98;;;2.65;;
24407;SDS011;12542;50.924;4.516;2023-07-16T02:19:23;7.68;;;2.10;;
24407;SDS011;12542;50.924;4.516;2023-07-16T02:21:50;11.85;;;2.85;;
24407;SDS011;12542;50.924;4.516;2023-07-16T02:24:19;9.23;;;2.80;;
24407;SDS011;12542;50.924;4.516;2023-07-16T02:26:45;8.80;;;2.58;;
24407;SDS011;12542;50.924;4.516;2023-07-16T02:29:10;10.18;;;3.25;;
24407;SDS011;12542;50.924;4.516;2023-07-16T02:31:36;10.38;;;2.97;;
24407;SDS011;12542;50.924;4.516;2023-07-16T02:34:02;9.57;;;2.90;;
24407;SDS011;12542;50.924;4.516;2023-07-16T02:36:27;9.75;;;3.20;;
24407;SDS011;12542;50.924;4.516;2023-07-16T02:38:53;10.93;;;3.22;;
24407;SDS011;12542;50.924;4.516;2023-07-16T02:41:19;10.75;;;3.25;;
24407;SDS011;12542;50.924;4.516;2023-07-16T02:43:45;11.45;;;3.65;;
24407;SDS011;12542;50.924;4.516;2023-07-16T02:46:11;10.15;;;2.97;;
24407;SDS011;12542;50.924;4.516;2023-07-16T02:48:37;8.13;;;2.85;;
24407;SDS011;12542;50.924;4.516;2023-07-16T02:51:03;7.55;;;3.50;;
24407;SDS011;12542;50.924;4.516;2023-07-16T02:53:28;12.75;;;4.18;;
24407;SDS011;12542;50.924;4.516;2023-07-16T02:55:54;11.73;;;4.05;;
24407;SDS011;12542;50.924;4.516;2023-07-16T02:58:20;12.77;;;4.30;;
24407;SDS011;12542;50.924;4.516;2023-07-16T03:00:45;13.80;;;4.15;;
24407;SDS011;12542;50.924;4.516;2023-07-16T03:03:11;6.45;;;4.03;;
24407;SDS011;12542;50.924;4.516;2023-07-16T03:05:37;9.80;;;3.92;;
24407;SDS011;12542;50.924;4.516;2023-07-16T03:08:02;9.95;;;4.07;;
24407;SDS011;12542;50.924;4.516;2023-07-16T03:10:28;12.48;;;4.35;;
24407;SDS011;12542;50.924;4.516;2023-07-16T03:12:54;12.35;;;4.43;;
24407;SDS011;12542;50.924;4.516;2023-07-16T03:15:20;12.20;;;4.78;;
24407;SDS011;12542;50.924;4.516;2023-07-16T03:17:45;17.38;;;4.38;;
24407;SDS011;12542;50.924;4.516;2023-07-16T03:20:13;11.13;;;4.15;;
24407;SDS011;12542;50.924;4.516;2023-07-16T03:22:39;12.25;;;4.70;;
24407;SDS011;12542;50.924;4.516;2023-07-16T03:25:05;11.23;;;4.38;;
24407;SDS011;12542;50.924;4.516;2023-07-16T03:27:31;9.90;;;4.28;;
24407;SDS011;12542;50.924;4.516;2023-07-16T03:29:56;14.00;;;3.80;;
24407;SDS011;12542;50.924;4.516;2023-07-16T03:32:22;12.77;;;4.28;;
24407;SDS011;12542;50.924;4.516;2023-07-16T03:34:48;12.45;;;4.15;;
24407;SDS011;12542;50.924;4.516;2023-07-16T03:37:14;11.25;;;4.20;;
24407;SDS011;12542;50.924;4.516;2023-07-16T03:39:39;13.95;;;3.65;;
24407;SDS011;12542;50.924;4.516;2023-07-16T03:42:05;8.90;;;3.90;;
24407;SDS011;12542;50.924;4.516;2023-07-16T03:44:31;13.43;;;4.07;;
24407;SDS011;12542;50.924;4.516;2023-07-16T03:46:56;10.57;;;3.85;;
24407;SDS011;12542;50.924;4.516;2023-07-16T03:49:22;9.32;;;3.72;;
24407;SDS011;12542;50.924;4.516;2023-07-16T03:51:48;10.07;;;3.90;;
24407;SDS011;12542;50.924;4.516;2023-07-16T03:54:16;11.38;;;4.13;;
24407;SDS011;12542;50.924;4.516;2023-07-16T03:56:41;13.13;;;3.97;;
24407;SDS011;12542;50.924;4.516;2023-07-16T03:59:07;13.10;;;4.07;;
24407;SDS011;12542;50.924;4.516;2023-07-16T04:01:32;10.80;;;3.78;;
24407;SDS011;12542;50.924;4.516;2023-07-16T04:03:58;13.20;;;4.45;;
24407;SDS011;12542;50.924;4.516;2023-07-16T04:06:24;12.13;;;4.82;;
24407;SDS011;12542;50.924;4.516;2023-07-16T04:08:49;10.90;;;4.07;;
24407;SDS011;12542;50.924;4.516;2023-07-16T04:11:15;11.48;;;4.13;;
24407;SDS011;12542;50.924;4.516;2023-07-16T04:13:41;8.88;;;4.40;;
24407;SDS011;12542;50.924;4.516;2023-07-16T04:16:07;11.57;;;4.65;;
24407;SDS011;12542;50.924;4.516;2023-07-16T04:18:32;13.00;;;4.10;;
24407;SDS011;12542;50.924;4.516;2023-07-16T04:20:58;15.32;;;4.45;;
24407;SDS011;12542;50.924;4.516;2023-07-16T04:23:24;13.90;;;4.97;;
24407;SDS011;12542;50.924;4.516;2023-07-16T04:25:53;12.07;;;5.43;;
24407;SDS011;12542;50.924;4.516;2023-07-16T04:28:20;14.65;;;4.93;;
24407;SDS011;12542;50.924;4.516;2023-07-16T04:30:45;14.55;;;4.95;;
24407;SDS011;12542;50.924;4.516;2023-07-16T04:33:11;11.20;;;4.93;;
24407;SDS011;12542;50.924;4.516;2023-07-16T04:35:36;11.48;;;4.53;;
24407;SDS011;12542;50.924;4.516;2023-07-16T04:38:02;13.27;;;4.80;;
24407;SDS011;12542;50.924;4.516;2023-07-16T04:40:31;12.27;;;4.60;;
24407;SDS011;12542;50.924;4.516;2023-07-16T04:42:57;11.93;;;4.85;;
24407;SDS011;12542;50.924;4.516;2023-07-16T04:45:22;9.75;;;4.18;;
24407;SDS011;12542;50.924;4.516;2023-07-16T04:47:48;8.90;;;4.18;;
24407;SDS011;12542;50.924;4.516;2023-07-16T04:50:14;12.32;;;4.30;;
24407;SDS011;12542;50.924;4.516;2023-07-16T04:52:39;11.63;;;4.07;;
24407;SDS011;12542;50.924;4.516;2023-07-16T04:55:05;10.60;;;4.63;;
24407;SDS011;12542;50.924;4.516;2023-07-16T04:57:32;12.45;;;4.93;;
24407;SDS011;12542;50.924;4.516;2023-07-16T04:59:58;8.05;;;4.45;;
24407;SDS011;12542;50.924;4.516;2023-07-16T05:02:23;9.75;;;4.15;;
24407;SDS011;12542;50.924;4.516;2023-07-16T05:04:49;13.60;;;4.65;;
24407;SDS011;12542;50.924;4.516;2023-07-16T05:07:15;12.55;;;5.10;;
24407;SDS011;12542;50.924;4.516;2023-07-16T05:09:41;9.77;;;4.45;;
24407;SDS011;12542;50.924;4.516;2023-07-16T05:12:08;11.98;;;4.65;;
24407;SDS011;12542;50.924;4.516;2023-07-16T05:14:42;10.48;;;4.65;;
24407;SDS011;12542;50.924;4.516;2023-07-16T05:17:13;13.38;;;4.45;;
24407;SDS011;12542;50.924;4.516;2023-07-16T05:19:39;13.40;;;4.75;;
24407;SDS011;12542;50.924;4.516;2023-07-16T05:22:05;11.00;;;5.03;;
24407;SDS011;12542;50.924;4.516;2023-07-16T05:24:31;14.38;;;5.18;;
24407;SDS011;12542;50.924;4.516;2023-07-16T05:26:57;9.45;;;4.53;;
24407;SDS011;12542;50.924;4.516;2023-07-16T05:29:23;15.35;;;4.70;;
24407;SDS011;12542;50.924;4.516;2023-07-16T05:31:48;12.88;;;4.72;;
24407;SDS011;12542;50.924;4.516;2023-07-16T05:34:14;9.18;;;4.38;;
24407;SDS011;12542;50.924;4.516;2023-07-16T05:36:41;7.30;;;4.40;;
24407;SDS011;12542;50.924;4.516;2023-07-16T05:39:07;13.90;;;4.63;;
24407;SDS011;12542;50.924;4.516;2023-07-16T05:41:33;9.55;;;4.55;;
24407;SDS011;12542;50.924;4.516;2023-07-16T05:43:59;10.18;;;4.07;;
24407;SDS011;12542;50.924;4.516;2023-07-16T05:46:25;11.50;;;5.00;;
24407;SDS011;12542;50.924;4.516;2023-07-16T05:48:51;9.63;;;4.90;;
24407;SDS011;12542;50.924;4.516;2023-07-16T05:51:17;11.57;;;4.70;;
24407;SDS011;12542;50.924;4.516;2023-07-16T05:53:42;14.35;;;5.28;;
24407;SDS011;12542;50.924;4.516;2023-07-16T05:56:08;16.08;;;4.93;;
24407;SDS011;12542;50.924;4.516;2023-07-16T05:58:34;13.30;;;4.90;;
24407;SDS011;12542;50.924;4.516;2023-07-16T06:00:59;13.40;;;5.00;;
24407;SDS011;12542;50.924;4.516;2023-07-16T06:03:25;14.43;;;4.63;;
24407;SDS011;12542;50.924;4.516;2023-07-16T06:05:51;13.57;;;5.43;;
24407;SDS011;12542;50.924;4.516;2023-07-16T06:08:16;15.38;;;4.97;;
24407;SDS011;12542;50.924;4.516;2023-07-16T06:10:42;10.40;;;4.38;;
24407;SDS011;12542;50.924;4.516;2023-07-16T06:13:08;9.13;;;4.68;;
24407;SDS011;12542;50.924;4.516;2023-07-16T06:15:36;12.02;;;5.38;;
24407;SDS011;12542;50.924;4.516;2023-07-16T06:18:02;13.07;;;5.22;;
24407;SDS011;12542;50.924;4.516;2023-07-16T06:20:27;13.18;;;5.13;;
24407;SDS011;12542;50.924;4.516;2023-07-16T06:22:54;8.82;;;4.22;;
24407;SDS011;12542;50.924;4.516;2023-07-16T06:25:19;11.32;;;4.78;;
24407;SDS011;12542;50.924;4.516;2023-07-16T06:27:45;7.97;;;4.60;;
24407;SDS011;12542;50.924;4.516;2023-07-16T06:30:10;9.65;;;4.57;;
24407;SDS011;12542;50.924;4.516;2023-07-16T06:32:36;10.57;;;4.45;;
24407;SDS011;12542;50.924;4.516;2023-07-16T06:35:02;9.07;;;4.60;;
24407;SDS011;12542;50.924;4.516;2023-07-16T06:37:28;9.95;;;4.68;;
24407;SDS011;12542;50.924;4.516;2023-07-16T06:39:53;10.00;;;5.00;;
24407;SDS011;12542;50.924;4.516;2023-07-16T06:42:19;11.05;;;5.10;;
24407;SDS011;12542;50.924;4.516;2023-07-16T06:44:45;10.38;;;5.38;;
24407;SDS011;12542;50.924;4.516;2023-07-16T06:47:10;10.52;;;4.95;;
24407;SDS011;12542;50.924;4.516;2023-07-16T06:49:36;18.10;;;5.35;;
24407;SDS011;12542;50.924;4.516;2023-07-16T06:52:02;11.60;;;5.10;;
24407;SDS011;12542;50.924;4.516;2023-07-16T06:54:28;10.57;;;5.20;;
24407;SDS011;12542;50.924;4.516;2023-07-16T06:56:53;9.15;;;4.85;;
24407;SDS011;12542;50.924;4.516;2023-07-16T06:59:19;12.63;;;4.85;;
24407;SDS011;12542;50.924;4.516;2023-07-16T07:01:45;11.48;;;5.10;;
24407;SDS011;12542;50.924;4.516;2023-07-16T07:04:11;10.57;;;4.90;;
24407;SDS011;12542;50.924;4.516;2023-07-16T07:06:36;13.35;;;5.47;;
24407;SDS011;12542;50.924;4.516;2023-07-16T07:09:02;13.30;;;5.05;;
24407;SDS011;12542;50.924;4.516;2023-07-16T07:11:28;11.13;;;5.35;;
24407;SDS011;12542;50.924;4.516;2023-07-16T07:13:54;10.65;;;4.63;;
24407;SDS011;12542;50.924;4.516;2023-07-16T07:16:21;10.63;;;4.88;;
24407;SDS011;12542;50.924;4.516;2023-07-16T07:18:47;11.52;;;4.97;;
24407;SDS011;12542;50.924;4.516;2023-07-16T07:21:13;8.07;;;4.78;;
24407;SDS011;12542;50.924;4.516;2023-07-16T07:23:39;10.40;;;4.38;;
24407;SDS011;12542;50.924;4.516;2023-07-16T07:26:05;10.13;;;5.20;;
24407;SDS011;12542;50.924;4.516;2023-07-16T07:28:30;12.60;;;5.03;;
24407;SDS011;12542;50.924;4.516;2023-07-16T07:30:56;10.38;;;5.18;;
24407;SDS011;12542;50.924;4.516;2023-07-16T07:33:22;8.57;;;4.20;;
24407;SDS011;12542;50.924;4.516;2023-07-16T07:35:47;9.85;;;4.22;;
24407;SDS011;12542;50.924;4.516;2023-07-16T07:38:13;13.85;;;5.25;;
24407;SDS011;12542;50.924;4.516;2023-07-16T07:40:39;12.60;;;4.68;;
24407;SDS011;12542;50.924;4.516;2023-07-16T07:43:08;10.57;;;4.97;;
24407;SDS011;12542;50.924;4.516;2023-07-16T07:45:36;9.57;;;4.75;;
24407;SDS011;12542;50.924;4.516;2023-07-16T07:48:02;13.13;;;4.53;;
24407;SDS011;12542;50.924;4.516;2023-07-16T07:50:28;9.73;;;4.55;;
24407;SDS011;12542;50.924;4.516;2023-07-16T07:52:54;17.27;;;5.30;;
24407;SDS011;12542;50.924;4.516;2023-07-16T07:55:19;10.93;;;4.88;;
24407;SDS011;12542;50.924;4.516;2023-07-16T07:57:45;10.57;;;5.03;;
24407;SDS011;12542;50.924;4.516;2023-07-16T08:00:13;10.43;;;4.55;;
24407;SDS011;12542;50.924;4.516;2023-07-16T08:02:40;11.80;;;4.35;;
24407;SDS011;12542;50.924;4.516;2023-07-16T08:05:06;8.10;;;4.35;;
24407;SDS011;12542;50.924;4.516;2023-07-16T08:07:32;8.75;;;4.25;;
24407;SDS011;12542;50.924;4.516;2023-07-16T08:09:57;10.48;;;4.70;;
24407;SDS011;12542;50.924;4.516;2023-07-16T08:12:23;9.93;;;4.10;;
24407;SDS011;12542;50.924;4.516;2023-07-16T08:14:49;7.70;;;4.18;;
24407;SDS011;12542;50.924;4.516;2023-07-16T08:17:14;9.70;;;4.97;;
24407;SDS011;12542;50.924;4.516;2023-07-16T08:19:40;11.57;;;4.80;;
24407;SDS011;12542;50.924;4.516;2023-07-16T08:22:06;11.95;;;5.07;;
24407;SDS011;12542;50.924;4.516;2023-07-16T08:24:31;11.73;;;4.72;;
24407;SDS011;12542;50.924;4.516;2023-07-16T08:26:57;13.38;;;5.13;;
24407;SDS011;12542;50.924;4.516;2023-07-16T08:29:23;9.18;;;4.78;;
24407;SDS011;12542;50.924;4.516;2023-07-16T08:31:48;8.82;;;4.57;;
24407;SDS011;12542;50.924;4.516;2023-07-16T08:34:15;9.68;;;4.35;;
24407;SDS011;12542;50.924;4.516;2023-07-16T08:36:43;9.38;;;4.47;;
24407;SDS011;12542;50.924;4.516;2023-07-16T08:39:09;13.25;;;4.88;;
24407;SDS011;12542;50.924;4.516;2023-07-16T08:41:35;9.25;;;4.88;;
24407;SDS011;12542;50.924;4.516;2023-07-16T08:44:03;8.57;;;4.65;;
24407;SDS011;12542;50.924;4.516;2023-07-16T08:46:29;8.00;;;3.92;;
24407;SDS011;12542;50.924;4.516;2023-07-16T08:48:56;10.18;;;4.57;;
24407;SDS011;12542;50.924;4.516;2023-07-16T08:51:22;8.85;;;3.90;;
24407;SDS011;12542;50.924;4.516;2023-07-16T08:53:50;9.13;;;3.80;;
24407;SDS011;12542;50.924;4.516;2023-07-16T08:56:15;13.80;;;4.53;;
24407;SDS011;12542;50.924;4.516;2023-07-16T08:58:41;7.68;;;3.63;;
24407;SDS011;12542;50.924;4.516;2023-07-16T09:01:10;8.68;;;3.85;;
24407;SDS011;12542;50.924;4.516;2023-07-16T09:03:36;10.10;;;3.40;;
24407;SDS011;12542;50.924;4.516;2023-07-16T09:06:02;10.55;;;4.18;;
24407;SDS011;12542;50.924;4.516;2023-07-16T09:08:29;10.18;;;4.43;;
24407;SDS011;12542;50.924;4.516;2023-07-16T09:10:57;9.48;;;3.90;;
24407;SDS011;12542;50.924;4.516;2023-07-16T09:13:24;10.25;;;3.83;;
24407;SDS011;12542;50.924;4.516;2023-07-16T09:15:56;9.90;;;4.00;;
24407;SDS011;12542;50.924;4.516;2023-07-16T09:18:24;5.88;;;3.85;;
24407;SDS011;12542;50.924;4.516;2023-07-16T09:20:55;8.00;;;4.10;;
24407;SDS011;12542;50.924;4.516;2023-07-16T09:23:23;8.00;;;3.50;;
24407;SDS011;12542;50.924;4.516;2023-07-16T09:25:51;11.10;;;4.32;;
24407;SDS011;12542;50.924;4.516;2023-07-16T09:28:18;8.27;;;3.60;;
24407;SDS011;12542;50.924;4.516;2023-07-16T09:30:44;8.95;;;3.67;;
24407;SDS011;12542;50.924;4.516;2023-07-16T09:33:13;8.85;;;4.10;;
24407;SDS011;12542;50.924;4.516;2023-07-16T09:35:42;10.88;;;4.32;;
24407;SDS011;12542;50.924;4.516;2023-07-16T09:38:12;7.55;;;3.53;;
24407;SDS011;12542;50.924;4.516;2023-07-16T09:40:38;10.25;;;4.60;;
24407;SDS011;12542;50.924;4.516;2023-07-16T09:43:08;9.02;;;4.03;;
24407;SDS011;12542;50.924;4.516;2023-07-16T09:45:34;10.88;;;4.10;;
24407;SDS011;12542;50.924;4.516;2023-07-16T09:48:01;11.07;;;3.95;;
24407;SDS011;12542;50.924;4.516;2023-07-16T09:50:29;15.23;;;4.57;;
24407;SDS011;12542;50.924;4.516;2023-07-16T09:52:57;8.50;;;3.88;;
24407;SDS011;12542;50.924;4.516;2023-07-16T09:55:23;8.95;;;4.18;;
24407;SDS011;12542;50.924;4.516;2023-07-16T09:57:51;11.40;;;4.68;;
24407;SDS011;12542;50.924;4.516;2023-07-16T10:00:18;12.02;;;4.32;;
24407;SDS011;12542;50.924;4.516;2023-07-16T10:02:46;9.27;;;4.15;;
24407;SDS011;12542;50.924;4.516;2023-07-16T10:07:51;11.02;;;4.57;;
24407;SDS011;12542;50.924;4.516;2023-07-16T10:10:20;12.18;;;4.25;;
24407;SDS011;12542;50.924;4.516;2023-07-16T10:13:01;10.85;;;4.75;;
24407;SDS011;12542;50.924;4.516;2023-07-16T10:15:30;9.48;;;4.88;;
24407;SDS011;12542;50.924;4.516;2023-07-16T10:17:56;7.85;;;3.92;;
24407;SDS011;12542;50.924;4.516;2023-07-16T10:20:28;8.98;;;4.47;;
24407;SDS011;12542;50.924;4.516;2023-07-16T10:23:12;7.25;;;3.70;;
24407;SDS011;12542;50.924;4.516;2023-07-16T10:25:38;8.82;;;4.22;;
24407;SDS011;12542;50.924;4.516;2023-07-16T10:28:05;9.32;;;3.97;;
24407;SDS011;12542;50.924;4.516;2023-07-16T10:30:31;12.77;;;4.05;;
24407;SDS011;12542;50.924;4.516;2023-07-16T10:33:02;8.25;;;4.00;;
24407;SDS011;12542;50.924;4.516;2023-07-16T10:35:31;7.05;;;3.65;;
24407;SDS011;12542;50.924;4.516;2023-07-16T10:38:00;9.68;;;3.40;;
24407;SDS011;12542;50.924;4.516;2023-07-16T10:40:26;9.40;;;4.10;;
24407;SDS011;12542;50.924;4.516;2023-07-16T10:42:52;8.43;;;3.65;;
24407;SDS011;12542;50.924;4.516;2023-07-16T10:45:18;16.42;;;4.78;;
24407;SDS011;12542;50.924;4.516;2023-07-16T10:47:52;7.97;;;3.63;;
24407;SDS011;12542;50.924;4.516;2023-07-16T10:50:20;10.35;;;4.03;;
24407;SDS011;12542;50.924;4.516;2023-07-16T10:52:50;9.75;;;4.60;;
24407;SDS011;12542;50.924;4.516;2023-07-16T10:55:19;12.95;;;3.92;;
24407;SDS011;12542;50.924;4.516;2023-07-16T10:57:49;9.82;;;3.20;;
24407;SDS011;12542;50.924;4.516;2023-07-16T11:00:16;13.70;;;4.15;;
24407;SDS011;12542;50.924;4.516;2023-07-16T11:02:43;11.27;;;4.07;;
24407;SDS011;12542;50.924;4.516;2023-07-16T11:05:10;10.20;;;3.67;;
24407;SDS011;12542;50.924;4.516;2023-07-16T11:07:36;9.90;;;4.00;;
24407;SDS011;12542;50.924;4.516;2023-07-16T11:10:02;9.55;;;3.90;;
24407;SDS011;12542;50.924;4.516;2023-07-16T11:12:28;7.85;;;4.07;;
24407;SDS011;12542;50.924;4.516;2023-07-16T11:14:55;10.68;;;3.85;;
24407;SDS011;12542;50.924;4.516;2023-07-16T11:17:22;10.95;;;3.60;;
24407;SDS011;12542;50.924;4.516;2023-07-16T11:19:50;11.45;;;3.70;;
24407;SDS011;12542;50.924;4.516;2023-07-16T11:22:16;11.60;;;3.70;;
24407;SDS011;12542;50.924;4.516;2023-07-16T11:24:43;9.88;;;3.55;;
24407;SDS011;12542;50.924;4.516;2023-07-16T11:27:15;11.57;;;4.10;;
24407;SDS011;12542;50.924;4.516;2023-07-16T11:29:49;7.03;;;3.50;;
24407;SDS011;12542;50.924;4.516;2023-07-16T11:35:06;9.57;;;3.10;;
24407;SDS011;12542;50.924;4.516;2023-07-16T11:37:34;8.88;;;3.90;;
24407;SDS011;12542;50.924;4.516;2023-07-16T11:40:03;8.18;;;2.97;;
24407;SDS011;12542;50.924;4.516;2023-07-16T11:42:34;6.93;;;2.92;;
24407;SDS011;12542;50.924;4.516;2023-07-16T11:45:02;8.43;;;3.38;;
24407;SDS011;12542;50.924;4.516;2023-07-16T11:47:28;7.28;;;3.28;;
24407;SDS011;12542;50.924;4.516;2023-07-16T11:49:54;8.90;;;3.20;;
24407;SDS011;12542;50.924;4.516;2023-07-16T11:52:21;11.90;;;3.38;;
24407;SDS011;12542;50.924;4.516;2023-07-16T11:54:54;6.68;;;3.38;;
24407;SDS011;12542;50.924;4.516;2023-07-16T11:57:21;7.95;;;3.70;;
24407;SDS011;12542;50.924;4.516;2023-07-16T11:59:51;7.70;;;3.50;;
24407;SDS011;12542;50.924;4.516;2023-07-16T12:02:16;9.38;;;3.63;;
24407;SDS011;12542;50.924;4.516;2023-07-16T12:04:42;8.52;;;3.47;;
24407;SDS011;12542;50.924;4.516;2023-07-16T12:07:08;8.30;;;3.50;;
24407;SDS011;12542;50.924;4.516;2023-07-16T12:09:34;9.00;;;4.10;;
24407;SDS011;12542;50.924;4.516;2023-07-16T12:12:00;9.43;;;3.75;;
24407;SDS011;12542;50.924;4.516;2023-07-16T12:14:26;10.55;;;3.45;;
24407;SDS011;12542;50.924;4.516;2023-07-16T12:16:52;9.02;;;3.30;;
24407;SDS011;12542;50.924;4.516;2023-07-16T12:19:17;7.85;;;3.50;;
24407;SDS011;12542;50.924;4.516;2023-07-16T12:21:43;8.70;;;3.13;;
24407;SDS011;12542;50.924;4.516;2023-07-16T12:24:09;7.35;;;3.22;;
24407;SDS011;12542;50.924;4.516;2023-07-16T12:26:35;7.25;;;2.92;;
24407;SDS011;12542;50.924;4.516;2023-07-16T12:29:01;7.32;;;2.83;;
24407;SDS011;12542;50.924;4.516;2023-07-16T12:31:29;11.45;;;3.05;;
24407;SDS011;12542;50.924;4.516;2023-07-16T12:33:59;10.32;;;3.45;;
24407;SDS011;12542;50.924;4.516;2023-07-16T12:36:29;9.48;;;3.53;;
24407;SDS011;12542;50.924;4.516;2023-07-16T12:38:54;16.10;;;3.65;;
24407;SDS011;12542;50.924;4.516;2023-07-16T12:41:20;7.03;;;3.60;;
24407;SDS011;12542;50.924;4.516;2023-07-16T12:43:46;6.68;;;3.00;;
24407;SDS011;12542;50.924;4.516;2023-07-16T12:46:12;5.45;;;2.63;;
24407;SDS011;12542;50.924;4.516;2023-07-16T12:48:38;8.18;;;3.42;;
24407;SDS011;12542;50.924;4.516;2023-07-16T12:51:03;6.45;;;2.97;;
24407;SDS011;12542;50.924;4.516;2023-07-16T12:53:29;8.90;;;3.17;;
24407;SDS011;12542;50.924;4.516;2023-07-16T12:55:55;7.82;;;3.38;;
24407;SDS011;12542;50.924;4.516;2023-07-16T12:58:21;8.05;;;3.20;;
24407;SDS011;12542;50.924;4.516;2023-07-16T13:00:50;8.35;;;2.72;;
24407;SDS011;12542;50.924;4.516;2023-07-16T13:03:16;4.75;;;2.47;;
24407;SDS011;12542;50.924;4.516;2023-07-16T13:05:42;9.18;;;2.92;;
24407;SDS011;12542;50.924;4.516;2023-07-16T13:08:09;6.70;;;3.03;;
24407;SDS011;12542;50.924;4.516;2023-07-16T13:10:35;7.78;;;3.42;;
24407;SDS011;12542;50.924;4.516;2023-07-16T13:13:01;7.88;;;3.40;;
24407;SDS011;12542;50.924;4.516;2023-07-16T13:15:28;6.20;;;2.80;;
24407;SDS011;12542;50.924;4.516;2023-07-16T13:17:54;6.70;;;3.20;;
24407;SDS011;12542;50.924;4.516;2023-07-16T13:20:20;7.20;;;2.88;;
24407;SDS011;12542;50.924;4.516;2023-07-16T13:22:47;6.32;;;2.20;;
24407;SDS011;12542;50.924;4.516;2023-07-16T13:25:13;6.85;;;2.72;;
24407;SDS011;12542;50.924;4.516;2023-07-16T13:27:39;6.93;;;2.60;;
24407;SDS011;12542;50.924;4.516;2023-07-16T13:30:05;8.65;;;3.20;;
24407;SDS011;12542;50.924;4.516;2023-07-16T13:32:31;7.93;;;2.92;;
24407;SDS011;12542;50.924;4.516;2023-07-16T13:34:57;5.10;;;2.47;;
24407;SDS011;12542;50.924;4.516;2023-07-16T13:37:22;6.85;;;3.15;;
24407;SDS011;12542;50.924;4.516;2023-07-16T13:39:48;5.45;;;2.20;;
24407;SDS011;12542;50.924;4.516;2023-07-16T13:42:14;5.97;;;2.53;;
24407;SDS011;12542;50.924;4.516;2023-07-16T13:44:39;5.25;;;2.00;;
24407;SDS011;12542;50.924;4.516;2023-07-16T13:47:05;6.13;;;2.15;;
24407;SDS011;12542;50.924;4.516;2023-07-16T13:49:31;5.78;;;1.90;;
24407;SDS011;12542;50.924;4.516;2023-07-16T13:51:56;4.45;;;1.92;;
24407;SDS011;12542;50.924;4.516;2023-07-16T13:54:23;5.95;;;1.80;;
24407;SDS011;12542;50.924;4.516;2023-07-16T13:56:48;6.50;;;2.50;;
24407;SDS011;12542;50.924;4.516;2023-07-16T13:59:14;4.38;;;1.67;;
24407;SDS011;12542;50.924;4.516;2023-07-16T14:01:40;3.83;;;1.60;;
24407;SDS011;12542;50.924;4.516;2023-07-16T14:04:06;4.28;;;1.65;;
24407;SDS011;12542;50.924;4.516;2023-07-16T14:06:32;6.80;;;1.60;;
24407;SDS011;12542;50.924;4.516;2023-07-16T14:08:58;6.07;;;1.83;;
24407;SDS011;12542;50.924;4.516;2023-07-16T14:11:25;4.10;;;1.70;;
24407;SDS011;12542;50.924;4.516;2023-07-16T14:13:51;4.30;;;1.70;;
24407;SDS011;12542;50.924;4.516;2023-07-16T14:16:18;4.90;;;2.17;;
24407;SDS011;12542;50.924;4.516;2023-07-16T14:18:44;6.32;;;1.80;;
24407;SDS011;12542;50.924;4.516;2023-07-16T14:21:10;5.55;;;2.20;;
24407;SDS011;12542;50.924;4.516;2023-07-16T14:23:36;6.35;;;2.10;;
24407;SDS011;12542;50.924;4.516;2023-07-16T14:26:01;5.43;;;2.22;;
24407;SDS011;12542;50.924;4.516;2023-07-16T14:28:28;6.68;;;2.15;;
24407;SDS011;12542;50.924;4.516;2023-07-16T14:30:54;5.97;;;1.75;;
24407;SDS011;12542;50.924;4.516;2023-07-16T14:33:22;4.43;;;1.77;;
24407;SDS011;12542;50.924;4.516;2023-07-16T14:35:47;4.72;;;2.08;;
24407;SDS011;12542;50.924;4.516;2023-07-16T14:38:13;6.95;;;2.72;;
24407;SDS011;12542;50.924;4.516;2023-07-16T14:40:39;5.40;;;2.58;;
24407;SDS011;12542;50.924;4.516;2023-07-16T14:43:05;5.40;;;2.33;;
24407;SDS011;12542;50.924;4.516;2023-07-16T14:45:34;6.95;;;2.88;;
24407;SDS011;12542;50.924;4.516;2023-07-16T14:48:00;6.70;;;2.30;;
24407;SDS011;12542;50.924;4.516;2023-07-16T14:50:26;4.95;;;2.45;;